createdAt,value
2023-05-20T00:00:53.262Z,54.26
2023-05-20T00:03:20.910Z,54.76
2023-05-20T00:05:48.277Z,57.30
2023-05-20T00:08:15.501Z,60.45
2023-05-20T00:10:43.000Z,63.28
2023-05-20T00:13:10.221Z,65.58
2023-05-20T00:15:37.852Z,70.08
2023-05-20T00:18:05.755Z,70.84
2023-05-20T00:20:33.071Z,70.67
2023-05-20T00:23:00.501Z,64.44
2023-05-20T00:25:27.994Z,61.98
2023-05-20T00:27:55.199Z,56.89
2023-05-20T00:30:22.521Z,55.89
2023-05-20T00:32:50.215Z,55.26
2023-05-20T00:35:17.490Z,55.25
2023-05-20T00:37:44.746Z,55.96
2023-05-20T00:40:14.837Z,59.45
2023-05-20T00:42:43.133Z,62.76
2023-05-20T00:45:10.675Z,70.66
2023-05-20T00:47:38.252Z,73.17
2023-05-20T00:50:05.861Z,75.32
2023-05-20T00:52:33.139Z,77.16
2023-05-20T00:55:00.610Z,75.28
2023-05-20T00:57:27.815Z,70.20
2023-05-20T00:59:55.097Z,70.75
2023-05-20T01:02:22.792Z,65.72
2023-05-20T01:04:50.746Z,64.03
2023-05-20T01:07:18.284Z,60.14
2023-05-20T01:09:45.790Z,57.18
2023-05-20T01:12:16.885Z,53.15
2023-05-20T01:14:47.211Z,51.60
2023-05-20T01:17:17.818Z,54.28
2023-05-20T01:19:45.398Z,54.59
2023-05-20T01:22:13.393Z,54.42
2023-05-20T01:24:49.881Z,55.81
2023-05-20T01:27:17.096Z,57.35
2023-05-20T01:29:45.986Z,60.92
2023-05-20T01:32:16.119Z,60.66
2023-05-20T01:34:43.927Z,62.29
2023-05-20T01:37:11.484Z,60.23
2023-05-20T01:39:38.707Z,58.85
2023-05-20T01:42:06.348Z,60.94
2023-05-20T01:44:33.861Z,60.96
2023-05-20T01:47:01.746Z,63.05
2023-05-20T01:49:29.312Z,70.74
2023-05-20T01:51:57.087Z,69.06
2023-05-20T01:54:24.336Z,74.24
2023-05-20T01:56:51.724Z,79.22
2023-05-20T01:59:19.247Z,80.44
2023-05-20T02:01:46.563Z,79.14
2023-05-20T02:04:15.875Z,80.25
2023-05-20T02:06:43.292Z,80.88
2023-05-20T02:09:10.530Z,75.32
2023-05-20T02:11:38.221Z,67.91
2023-05-20T02:14:05.561Z,76.68
2023-05-20T02:16:32.816Z,75.98
2023-05-20T02:19:02.165Z,76.24
2023-05-20T02:21:29.789Z,78.01
2023-05-20T02:23:57.040Z,75.35
2023-05-20T02:26:25.396Z,76.92
2023-05-20T02:28:52.873Z,69.53
2023-05-20T02:31:22.551Z,67.62
2023-05-20T02:33:49.826Z,71.49
2023-05-20T02:36:17.397Z,68.85
2023-05-20T02:38:44.752Z,66.62
2023-05-20T02:41:12.013Z,61.47
2023-05-20T02:43:40.697Z,61.55
2023-05-20T02:46:07.899Z,61.92
2023-05-20T02:48:35.080Z,61.82
2023-05-20T02:51:02.747Z,61.52
2023-05-20T02:53:29.994Z,62.30
2023-05-20T02:55:57.714Z,61.26
2023-05-20T02:58:26.443Z,60.04
2023-05-20T03:00:53.988Z,59.51
2023-05-20T03:03:21.773Z,60.39
2023-05-20T03:05:50.193Z,61.25
2023-05-20T03:08:18.577Z,62.80
2023-05-20T03:10:45.794Z,62.81
2023-05-20T03:13:15.184Z,62.36
2023-05-20T03:15:42.567Z,63.79
2023-05-20T03:18:09.852Z,63.18
2023-05-20T03:20:38.335Z,62.74
2023-05-20T03:23:06.181Z,64.11
2023-05-20T03:25:34.130Z,63.38
2023-05-20T03:28:01.914Z,60.21
2023-05-20T03:30:29.621Z,60.65
2023-05-20T03:32:59.870Z,61.51
2023-05-20T03:35:27.607Z,61.71
2023-05-20T03:37:55.107Z,61.28
2023-05-20T03:40:22.496Z,61.03
2023-05-20T03:42:51.077Z,60.34
2023-05-20T03:45:18.727Z,62.36
2023-05-20T03:47:47.306Z,61.82
2023-05-20T03:50:16.501Z,62.49
2023-05-20T03:52:43.937Z,61.73
2023-05-20T03:55:11.382Z,59.63
2023-05-20T03:57:39.048Z,61.68
2023-05-20T04:00:12.006Z,61.30
2023-05-20T04:02:43.517Z,61.96
2023-05-20T04:05:11.819Z,59.61
2023-05-20T04:07:39.330Z,62.35
2023-05-20T04:10:09.539Z,62.76
2023-05-20T04:12:38.388Z,63.61
2023-05-20T04:15:06.142Z,62.24
2023-05-20T04:17:33.978Z,64.03
2023-05-20T04:20:01.507Z,63.65
2023-05-20T04:22:29.122Z,61.81
2023-05-20T04:24:56.582Z,63.25
2023-05-20T04:27:26.332Z,61.45
2023-05-20T04:29:55.030Z,65.42
2023-05-20T04:32:22.532Z,62.88
2023-05-20T04:34:50.726Z,61.62
2023-05-20T04:37:18.445Z,62.06
2023-05-20T04:39:48.333Z,63.01
2023-05-20T04:42:18.486Z,63.39
2023-05-20T04:44:48.809Z,62.66
2023-05-20T04:47:16.552Z,60.83
2023-05-20T04:49:43.876Z,59.31
2023-05-20T04:52:11.134Z,59.25
2023-05-20T04:54:40.331Z,61.18
2023-05-20T04:57:07.813Z,61.70
2023-05-20T04:59:35.400Z,58.84
2023-05-20T05:02:03.273Z,60.26
2023-05-20T05:04:30.630Z,58.74
2023-05-20T05:06:57.898Z,57.41
2023-05-20T05:09:25.436Z,58.06
2023-05-20T05:11:52.935Z,58.03
2023-05-20T05:14:20.160Z,59.18
2023-05-20T05:16:47.666Z,58.73
2023-05-20T05:19:15.562Z,57.14
2023-05-20T05:21:43.063Z,58.69
2023-05-20T05:24:11.001Z,56.13
2023-05-20T05:26:38.371Z,57.75
2023-05-20T05:29:05.606Z,57.26
2023-05-20T05:31:33.162Z,54.01
2023-05-20T05:34:01.411Z,56.96
2023-05-20T05:36:28.682Z,55.04
2023-05-20T05:38:56.615Z,53.79
2023-05-20T05:41:23.856Z,55.40
2023-05-20T05:43:51.968Z,57.18
2023-05-20T05:46:19.560Z,57.06
2023-05-20T05:48:49.223Z,54.14
2023-05-20T05:51:17.390Z,51.21
2023-05-20T05:53:45.264Z,51.86
2023-05-20T05:56:12.554Z,55.72
2023-05-20T05:58:40.134Z,53.81
2023-05-20T06:01:07.987Z,53.66
2023-05-20T06:03:35.714Z,54.56
2023-05-20T06:06:03.157Z,49.96
2023-05-20T06:08:30.703Z,51.99
2023-05-20T06:10:59.674Z,56.11
2023-05-20T06:13:29.532Z,56.57
2023-05-20T06:15:57.113Z,54.92
2023-05-20T06:18:25.999Z,55.75
2023-05-20T06:20:56.935Z,55.54
2023-05-20T06:23:24.827Z,54.47
2023-05-20T06:25:53.576Z,53.47
2023-05-20T06:28:20.849Z,53.46
2023-05-20T06:30:48.158Z,52.88
2023-05-20T06:33:16.129Z,52.92
2023-05-20T06:35:43.349Z,51.40
2023-05-20T06:38:10.943Z,52.56
2023-05-20T06:40:38.793Z,52.29
2023-05-20T06:43:06.035Z,52.48
2023-05-20T06:45:41.887Z,51.43
2023-05-20T06:48:11.319Z,49.54
2023-05-20T06:50:38.912Z,47.76
2023-05-20T06:53:06.621Z,54.76
2023-05-20T06:55:34.425Z,51.94
2023-05-20T06:58:01.974Z,53.44
2023-05-20T07:00:29.716Z,51.50
2023-05-20T07:02:57.963Z,49.50
2023-05-20T07:05:25.849Z,49.71
2023-05-20T07:07:53.398Z,51.59
2023-05-20T07:10:21.178Z,50.78
2023-05-20T07:12:48.858Z,50.92
2023-05-20T07:15:16.446Z,53.41
2023-05-20T07:17:43.766Z,47.70
2023-05-20T07:20:11.174Z,47.42
2023-05-20T07:22:39.163Z,44.77
2023-05-20T07:25:07.480Z,40.69
2023-05-20T07:27:35.947Z,41.99
2023-05-20T07:30:03.710Z,36.79
2023-05-20T07:32:31.486Z,36.95
2023-05-20T07:34:59.448Z,37.29
2023-05-20T07:37:28.641Z,35.42
2023-05-20T07:39:56.252Z,34.16
2023-05-20T07:42:23.501Z,32.62
2023-05-20T07:44:51.389Z,34.51
2023-05-20T07:47:19.061Z,32.89
2023-05-20T07:49:46.952Z,32.79
2023-05-20T07:52:14.437Z,31.70
2023-05-20T07:54:41.971Z,31.29
2023-05-20T07:57:09.383Z,29.93
2023-05-20T07:59:36.932Z,32.22
2023-05-20T08:02:05.089Z,30.16
2023-05-20T08:04:33.004Z,29.00
2023-05-20T08:07:00.348Z,30.67
2023-05-20T08:09:28.197Z,29.99
2023-05-20T08:11:55.952Z,32.70
2023-05-20T08:14:23.333Z,30.64
2023-05-20T08:16:53.799Z,29.99
2023-05-20T08:19:22.321Z,31.13
2023-05-20T08:21:49.865Z,31.65
2023-05-20T08:24:17.596Z,32.15
2023-05-20T08:26:45.294Z,31.13
2023-05-20T08:29:12.741Z,30.49
2023-05-20T08:31:40.546Z,33.78
2023-05-20T08:34:08.342Z,30.96
2023-05-20T08:36:35.988Z,30.54
2023-05-20T08:39:04.516Z,31.85
2023-05-20T08:41:32.244Z,30.66
2023-05-20T08:44:01.856Z,31.74
2023-05-20T08:46:30.050Z,31.85
2023-05-20T08:48:59.397Z,35.64
2023-05-20T08:51:27.394Z,33.96
2023-05-20T08:53:54.624Z,34.36
2023-05-20T08:56:23.647Z,35.09
2023-05-20T08:58:51.166Z,34.94
2023-05-20T09:01:18.688Z,35.01
2023-05-20T09:03:46.215Z,32.70
2023-05-20T09:06:17.035Z,34.23
2023-05-20T09:08:44.830Z,34.79
2023-05-20T09:11:12.495Z,34.90
2023-05-20T09:13:39.789Z,34.58
2023-05-20T09:16:07.439Z,32.91
2023-05-20T09:18:39.026Z,34.95
2023-05-20T09:21:09.384Z,37.08
2023-05-20T09:23:38.304Z,37.31
2023-05-20T09:26:06.138Z,36.73
2023-05-20T09:28:33.861Z,36.09
2023-05-20T09:31:02.203Z,38.65
2023-05-20T09:33:30.504Z,37.22
2023-05-20T09:36:05.124Z,35.83
2023-05-20T09:38:39.086Z,35.53
2023-05-20T09:41:09.425Z,35.45
2023-05-20T09:43:39.493Z,35.25
2023-05-20T09:46:08.260Z,35.67
2023-05-20T09:48:37.290Z,36.02
2023-05-20T09:51:06.935Z,37.67
2023-05-20T09:53:34.642Z,36.31
2023-05-20T09:56:02.129Z,34.50
2023-05-20T09:58:30.285Z,35.79
2023-05-20T10:00:57.829Z,34.50
2023-05-20T10:03:28.060Z,33.30
2023-05-20T10:06:25.718Z,33.71
2023-05-20T10:09:19.328Z,32.62
2023-05-20T10:12:04.569Z,31.95
2023-05-20T10:14:59.839Z,32.52
2023-05-20T10:17:36.590Z,32.70
2023-05-20T10:20:09.203Z,31.57
2023-05-20T10:22:36.667Z,32.72
2023-05-20T10:25:12.460Z,31.40
2023-05-20T10:27:47.101Z,31.42
2023-05-20T10:30:22.413Z,31.04
2023-05-20T10:32:54.468Z,31.13
2023-05-20T10:35:26.414Z,30.84
2023-05-20T10:37:55.398Z,29.90
2023-05-20T10:40:23.240Z,29.84
2023-05-20T10:42:50.690Z,29.35
2023-05-20T10:45:28.926Z,30.00
2023-05-20T10:47:58.612Z,30.75
2023-05-20T10:50:36.839Z,30.12
2023-05-20T10:53:15.958Z,29.60
2023-05-20T10:55:54.694Z,28.92
2023-05-20T10:58:23.935Z,30.02
2023-05-20T11:00:54.770Z,29.81
2023-05-20T11:03:23.400Z,30.92
2023-05-20T11:05:51.232Z,29.51
2023-05-20T11:08:28.388Z,27.44
2023-05-20T11:10:57.752Z,27.51
2023-05-20T11:13:27.149Z,28.44
2023-05-20T11:15:55.611Z,27.19
2023-05-20T11:18:23.406Z,27.44
2023-05-20T11:20:51.140Z,27.45
2023-05-20T11:23:19.244Z,27.22
2023-05-20T11:25:47.057Z,28.63
2023-05-20T11:28:14.729Z,28.76
2023-05-20T11:30:43.180Z,28.02
2023-05-20T11:33:17.466Z,28.47
2023-05-20T11:35:52.867Z,28.05
2023-05-20T11:38:21.874Z,28.27
2023-05-20T11:40:54.810Z,27.59
2023-05-20T11:43:23.780Z,28.74
2023-05-20T11:45:56.197Z,26.29
2023-05-20T11:48:24.532Z,26.05
2023-05-20T11:50:55.631Z,28.70
2023-05-20T11:53:24.439Z,26.60
2023-05-20T11:55:56.377Z,26.88
2023-05-20T11:58:25.551Z,26.87
2023-05-20T12:00:59.512Z,26.42
2023-05-20T12:03:37.590Z,28.25
2023-05-20T12:06:05.295Z,28.17
2023-05-20T12:08:32.771Z,27.53
2023-05-20T12:11:00.498Z,28.01
2023-05-20T12:13:27.966Z,27.54
2023-05-20T12:15:55.485Z,28.65
2023-05-20T12:18:23.396Z,27.95
2023-05-20T12:20:51.655Z,29.09
2023-05-20T12:23:19.200Z,28.66
2023-05-20T12:25:49.849Z,28.66
2023-05-20T12:28:17.791Z,27.61
2023-05-20T12:30:45.211Z,29.03
2023-05-20T12:33:12.960Z,28.23
2023-05-20T12:35:42.229Z,29.33
2023-05-20T12:38:10.153Z,26.08
2023-05-20T12:40:38.417Z,27.68
2023-05-20T12:43:06.383Z,29.18
2023-05-20T12:45:33.822Z,29.73
2023-05-20T12:48:01.838Z,31.17
2023-05-20T12:50:29.842Z,27.09
2023-05-20T12:52:57.335Z,27.96
2023-05-20T12:55:30.770Z,28.72
2023-05-20T12:57:58.681Z,28.88
2023-05-20T13:00:26.425Z,27.97
2023-05-20T13:02:54.820Z,28.81
2023-05-20T13:05:22.857Z,27.90
2023-05-20T13:07:50.618Z,27.12
2023-05-20T13:10:18.606Z,27.42
2023-05-20T13:12:46.406Z,29.03
2023-05-20T13:15:14.776Z,26.80
2023-05-20T13:17:45.008Z,30.69
2023-05-20T13:20:13.102Z,30.22
2023-05-20T13:22:40.743Z,29.61
2023-05-20T13:25:08.206Z,29.07
2023-05-20T13:27:35.481Z,28.63
2023-05-20T13:30:04.139Z,30.30
2023-05-20T13:32:31.547Z,30.35
2023-05-20T13:34:59.753Z,27.86
2023-05-20T13:37:27.289Z,29.27
2023-05-20T13:39:54.478Z,30.11
2023-05-20T13:42:21.733Z,28.98
2023-05-20T13:44:49.233Z,27.95
2023-05-20T13:47:16.448Z,30.16
2023-05-20T13:49:43.692Z,28.66
2023-05-20T13:52:11.276Z,28.75
2023-05-20T13:54:38.653Z,29.25
2023-05-20T13:57:08.084Z,30.33
2023-05-20T13:59:35.805Z,28.61
2023-05-20T14:02:03.230Z,29.78
2023-05-20T14:04:38.163Z,28.15
2023-05-20T14:07:07.718Z,28.15
2023-05-20T14:09:36.832Z,29.95
2023-05-20T14:12:04.524Z,30.15
2023-05-20T14:14:31.858Z,30.08
2023-05-20T14:16:59.338Z,31.78
2023-05-20T14:19:26.954Z,29.93
2023-05-20T14:21:54.266Z,28.71
2023-05-20T14:24:23.827Z,30.44
2023-05-20T14:26:51.271Z,29.61
2023-05-20T14:29:18.447Z,30.69
2023-05-20T14:31:46.268Z,29.81
2023-05-20T14:34:13.506Z,30.23
2023-05-20T14:36:40.857Z,31.59
2023-05-20T14:39:08.369Z,29.72
2023-05-20T14:41:36.455Z,30.95
2023-05-20T14:44:03.647Z,28.36
2023-05-20T14:46:31.315Z,29.51
2023-05-20T14:48:58.589Z,29.42
2023-05-20T14:51:25.846Z,29.70
2023-05-20T14:53:53.304Z,30.81
2023-05-20T14:56:20.807Z,30.22
2023-05-20T14:58:48.006Z,28.25
2023-05-20T15:01:15.659Z,27.65
2023-05-20T15:03:42.960Z,27.44
2023-05-20T15:06:10.218Z,26.45
2023-05-20T15:08:37.680Z,27.73
2023-05-20T15:11:04.936Z,28.93
2023-05-20T15:13:32.203Z,26.77
2023-05-20T15:15:59.676Z,27.75
2023-05-20T15:18:27.365Z,28.19
2023-05-20T15:20:54.601Z,28.09
2023-05-20T15:23:22.130Z,28.82
2023-05-20T15:25:50.393Z,28.12
2023-05-20T15:28:19.779Z,27.36
2023-05-20T15:30:51.298Z,29.79
2023-05-20T15:33:18.595Z,28.76
2023-05-20T15:35:45.832Z,29.02
2023-05-20T15:38:13.667Z,27.47
2023-05-20T15:40:41.417Z,27.36
2023-05-20T15:43:08.960Z,28.54
2023-05-20T15:45:36.492Z,27.53
2023-05-20T15:48:04.296Z,28.55
2023-05-20T15:50:31.940Z,30.19
2023-05-20T15:52:59.476Z,29.73
2023-05-20T15:55:26.732Z,29.76
2023-05-20T15:57:53.958Z,30.24
2023-05-20T16:00:21.907Z,29.53
2023-05-20T16:02:50.808Z,28.88
2023-05-20T16:05:18.155Z,29.79
2023-05-20T16:07:46.774Z,28.45
2023-05-20T16:10:14.305Z,30.42
2023-05-20T16:12:41.571Z,32.38
2023-05-20T16:15:10.070Z,32.16
2023-05-20T16:17:37.798Z,31.40
2023-05-20T16:20:08.201Z,30.15
2023-05-20T16:22:35.474Z,30.95
2023-05-20T16:25:03.130Z,31.00
2023-05-20T16:27:31.871Z,31.52
2023-05-20T16:29:59.160Z,30.97
2023-05-20T16:32:27.123Z,31.54
2023-05-20T16:34:54.864Z,32.98
2023-05-20T16:37:22.084Z,30.78
2023-05-20T16:39:49.590Z,33.27
2023-05-20T16:42:16.791Z,31.92
2023-05-20T16:44:46.021Z,32.07
2023-05-20T16:47:13.521Z,32.51
2023-05-20T16:49:40.825Z,31.39
2023-05-20T16:52:08.714Z,33.20
2023-05-20T16:54:36.392Z,32.17
2023-05-20T16:57:04.008Z,34.17
2023-05-20T16:59:35.093Z,33.97
2023-05-20T17:02:02.538Z,34.29
2023-05-20T17:04:29.800Z,33.45
2023-05-20T17:06:57.114Z,34.40
2023-05-20T17:09:24.608Z,33.93
2023-05-20T17:11:52.980Z,33.06
2023-05-20T17:14:20.177Z,33.57
2023-05-20T17:16:47.775Z,33.08
2023-05-20T17:19:15.132Z,33.03
2023-05-20T17:21:42.365Z,32.02
2023-05-20T17:24:09.890Z,33.06
2023-05-20T17:26:37.166Z,33.43
2023-05-20T17:29:04.419Z,33.54
2023-05-20T17:31:31.926Z,33.01
2023-05-20T17:33:59.191Z,34.15
2023-05-20T17:36:26.801Z,34.59
2023-05-20T17:38:55.673Z,34.97
2023-05-20T17:41:23.161Z,34.80
2023-05-20T17:43:50.697Z,34.74
2023-05-20T17:46:18.621Z,34.75
2023-05-20T17:48:46.008Z,34.89
2023-05-20T17:51:13.293Z,34.20
2023-05-20T17:53:40.765Z,32.95
2023-05-20T17:56:07.990Z,32.41
2023-05-20T17:58:35.541Z,33.52
2023-05-20T18:01:03.105Z,33.47
2023-05-20T18:03:30.656Z,32.85
2023-05-20T18:05:57.935Z,32.63
2023-05-20T18:08:28.042Z,32.77
2023-05-20T18:10:55.712Z,33.59
2023-05-20T18:13:22.917Z,32.45
2023-05-20T18:15:50.210Z,32.64
2023-05-20T18:18:17.623Z,32.36
2023-05-20T18:20:44.858Z,32.26
2023-05-20T18:23:12.082Z,32.60
2023-05-20T18:25:41.804Z,32.51
2023-05-20T18:28:11.157Z,32.54
2023-05-20T18:30:38.432Z,33.11
2023-05-20T18:33:06.233Z,32.31
2023-05-20T18:35:34.043Z,31.89
2023-05-20T18:38:01.208Z,31.73
2023-05-20T18:40:29.151Z,32.71
2023-05-20T18:42:56.291Z,32.30
2023-05-20T18:45:24.912Z,32.37
2023-05-20T18:47:57.600Z,32.97
2023-05-20T18:50:24.844Z,32.60
2023-05-20T18:52:52.134Z,32.35
2023-05-20T18:55:19.678Z,32.97
2023-05-20T18:57:46.957Z,34.62
2023-05-20T19:00:15.604Z,37.05
2023-05-20T19:02:43.558Z,41.57
2023-05-20T19:05:12.471Z,46.30
2023-05-20T19:07:39.860Z,48.75
2023-05-20T19:10:08.275Z,48.91
2023-05-20T19:12:35.849Z,51.37
2023-05-20T19:15:05.161Z,52.38
2023-05-20T19:17:33.226Z,53.04
2023-05-20T19:20:00.858Z,54.10
2023-05-20T19:22:28.324Z,54.36
2023-05-20T19:24:56.040Z,54.88
2023-05-20T19:27:23.468Z,56.06
2023-05-20T19:29:50.841Z,55.15
2023-05-20T19:32:18.368Z,55.04
2023-05-20T19:34:45.678Z,55.52
2023-05-20T19:37:12.889Z,55.73
2023-05-20T19:39:40.594Z,55.78
2023-05-20T19:42:07.788Z,56.32
2023-05-20T19:44:34.956Z,57.63
2023-05-20T19:47:02.686Z,59.55
2023-05-20T19:49:30.099Z,58.66
2023-05-20T19:51:57.519Z,59.21
2023-05-20T19:54:27.016Z,59.38
2023-05-20T19:56:54.573Z,57.56
2023-05-20T19:59:22.040Z,55.36
2023-05-20T20:01:49.805Z,57.10
2023-05-20T20:04:18.538Z,57.42
2023-05-20T20:06:47.128Z,58.54
2023-05-20T20:09:14.604Z,60.54
2023-05-20T20:11:43.388Z,59.03
2023-05-20T20:14:11.126Z,60.24
2023-05-20T20:16:38.711Z,61.02
2023-05-20T20:19:06.532Z,59.96
2023-05-20T20:21:36.276Z,61.80
2023-05-20T20:24:03.630Z,57.62
2023-05-20T20:26:31.215Z,54.15
2023-05-20T20:28:58.477Z,53.89
2023-05-20T20:31:26.517Z,50.17
2023-05-20T20:33:54.016Z,49.59
2023-05-20T20:36:21.372Z,48.00
2023-05-20T20:38:48.566Z,46.74
2023-05-20T20:41:16.253Z,47.65
2023-05-20T20:43:44.922Z,45.78
2023-05-20T20:46:15.008Z,45.12
2023-05-20T20:48:45.918Z,44.42
2023-05-20T20:51:13.853Z,43.89
2023-05-20T20:53:42.051Z,43.48
2023-05-20T20:56:09.655Z,42.95
2023-05-20T20:58:37.802Z,42.19
2023-05-20T21:01:05.736Z,41.87
2023-05-20T21:03:40.428Z,42.01
2023-05-20T21:06:08.130Z,42.49
2023-05-20T21:08:35.879Z,42.42
2023-05-20T21:11:03.055Z,43.87
2023-05-20T21:13:30.591Z,43.12
2023-05-20T21:15:58.052Z,43.18
2023-05-20T21:18:25.520Z,42.65
2023-05-20T21:20:53.151Z,41.11
2023-05-20T21:23:20.948Z,41.58
2023-05-20T21:25:48.475Z,41.30
2023-05-20T21:28:16.135Z,40.60
2023-05-20T21:30:44.969Z,41.24
2023-05-20T21:33:12.430Z,41.05
2023-05-20T21:35:39.653Z,41.78
2023-05-20T21:38:07.091Z,42.59
2023-05-20T21:40:34.280Z,43.58
2023-05-20T21:43:01.600Z,42.63
2023-05-20T21:45:29.079Z,44.93
2023-05-20T21:47:56.400Z,43.07
2023-05-20T21:50:23.713Z,43.89
2023-05-20T21:52:51.285Z,43.07
2023-05-20T21:55:23.327Z,42.41
2023-05-20T21:57:51.152Z,44.88
2023-05-20T22:00:19.028Z,44.02
2023-05-20T22:02:46.686Z,43.34
2023-05-20T22:05:14.732Z,43.70
2023-05-20T22:07:41.931Z,43.12
2023-05-20T22:10:09.705Z,42.94
2023-05-20T22:12:38.094Z,43.20
2023-05-20T22:15:05.793Z,43.43
2023-05-20T22:17:36.724Z,43.93
2023-05-20T22:20:08.381Z,43.66
2023-05-20T22:22:36.101Z,42.97
2023-05-20T22:25:03.679Z,42.79
2023-05-20T22:27:31.728Z,42.75
2023-05-20T22:29:59.370Z,43.02
2023-05-20T22:32:26.724Z,41.83
2023-05-20T22:34:58.675Z,42.69
2023-05-20T22:37:26.440Z,45.13
2023-05-20T22:39:53.598Z,44.31
2023-05-20T22:42:20.882Z,43.44
2023-05-20T22:44:48.409Z,42.48
2023-05-20T22:47:15.967Z,42.54
2023-05-20T22:49:43.284Z,44.11
2023-05-20T22:52:11.644Z,43.93
2023-05-20T22:54:38.874Z,44.81
2023-05-20T22:57:06.157Z,43.77
2023-05-20T22:59:34.339Z,44.03
2023-05-20T23:02:02.344Z,44.26
2023-05-20T23:04:29.819Z,45.51
2023-05-20T23:06:59.257Z,46.05
2023-05-20T23:09:27.072Z,46.77
2023-05-20T23:11:54.247Z,46.13
2023-05-20T23:14:21.763Z,46.64
2023-05-20T23:16:49.028Z,46.41
2023-05-20T23:19:16.838Z,46.51
2023-05-20T23:21:44.339Z,45.83
2023-05-20T23:24:11.905Z,45.95
2023-05-20T23:26:39.660Z,48.00
2023-05-20T23:29:08.490Z,47.21
2023-05-20T23:31:36.011Z,47.94
2023-05-20T23:34:03.890Z,48.29
2023-05-20T23:36:34.586Z,46.69
2023-05-20T23:39:04.048Z,49.14
2023-05-20T23:41:31.693Z,48.78
2023-05-20T23:43:59.017Z,48.82
2023-05-20T23:46:26.256Z,47.72
2023-05-20T23:48:54.634Z,47.73
2023-05-20T23:51:21.905Z,47.90
2023-05-20T23:53:49.200Z,48.04
2023-05-20T23:56:16.772Z,50.57
2023-05-20T23:58:43.969Z,50.26
